Time;durP1;ratioP1;P1;durP2;ratioP2;P2;SDS_P1;SDS_P2;PMS_P1;PMS_P2;Temp;Humidity;BMP_temperature;BMP_pressure;BME280_temperature;BME280_humidity;BME280_pressure;Samples;Min_cycle;Max_cycle;Signal;HPM_P1;HPM_P2
2023/05/26 00:00:26;;;;;;;50.35;26.52;;;14.80;80.30;;;;;;4754023;30;20060;-91
2023/05/26 00:02:53;;;;;;;49.85;27.10;;;14.80;80.30;;;;;;4768790;30;20079;-91
2023/05/26 00:05:21;;;;;;;56.13;27.03;;;14.70;80.40;;;;;;4739223;30;20096;-91
2023/05/26 00:07:48;;;;;;;48.42;26.08;;;14.70;80.30;;;;;;4753889;30;20060;-91
2023/05/26 00:10:15;;;;;;;55.42;27.70;;;14.70;80.50;;;;;;4727719;30;20057;-91
2023/05/26 00:12:44;;;;;;;53.22;27.65;;;14.70;80.50;;;;;;4721279;30;20084;-91
2023/05/26 00:15:14;;;;;;;49.35;26.08;;;14.70;80.60;;;;;;4735630;30;20527;-91
2023/05/26 00:17:41;;;;;;;53.70;28.23;;;14.60;80.60;;;;;;4721836;30;20143;-91
2023/05/26 00:20:10;;;;;;;55.25;28.88;;;14.70;80.60;;;;;;4736088;30;20053;-91
2023/05/26 00:22:38;;;;;;;55.33;29.63;;;14.70;80.50;;;;;;4721880;30;20540;-91
2023/05/26 00:25:05;;;;;;;58.70;29.05;;;14.70;80.50;;;;;;4721573;30;20069;-91
2023/05/26 00:27:35;;;;;;;52.90;27.92;;;14.60;80.70;;;;;;4721433;30;20087;-91
2023/05/26 00:30:07;;;;;;;52.93;26.67;;;14.60;80.90;;;;;;4721230;30;20064;-92
2023/05/26 00:32:34;;;;;;;51.70;26.55;;;14.60;80.80;;;;;;4736646;30;20120;-92
2023/05/26 00:35:07;;;;;;;53.38;27.05;;;14.60;80.80;;;;;;4721081;30;20106;-92
2023/05/26 00:37:34;;;;;;;55.22;26.95;;;14.60;80.80;;;;;;4721366;30;20059;-92
2023/05/26 00:40:06;;;;;;;53.30;26.95;;;14.60;80.70;;;;;;4721540;30;20049;-92
2023/05/26 00:42:37;;;;;;;51.60;26.43;;;14.60;80.80;;;;;;4721335;30;20048;-92
2023/05/26 00:45:04;;;;;;;56.13;26.77;;;14.50;80.90;;;;;;4721249;30;20063;-92
2023/05/26 00:47:32;;;;;;;51.75;25.25;;;14.60;80.90;;;;;;4721417;30;20052;-92
2023/05/26 00:50:06;;;;;;;52.00;25.60;;;14.50;81.00;;;;;;4735491;30;20053;-92
2023/05/26 00:52:34;;;;;;;53.72;26.85;;;14.50;81.10;;;;;;4721591;30;20151;-92
2023/05/26 00:55:06;;;;;;;47.20;24.93;;;14.50;81.30;;;;;;4721508;30;20108;-92
2023/05/26 00:57:33;;;;;;;49.67;26.38;;;14.50;81.20;;;;;;4735656;30;20169;-92
2023/05/26 01:00:01;;;;;;;49.72;24.45;;;14.50;81.30;;;;;;4720871;30;20151;-92
2023/05/26 01:02:32;;;;;;;45.47;24.50;;;14.50;81.40;;;;;;4721699;30;20527;-92
2023/05/26 01:05:00;;;;;;;49.72;25.00;;;14.50;81.30;;;;;;4720928;30;20526;-91
2023/05/26 01:07:27;;;;;;;49.33;24.23;;;14.50;81.10;;;;;;4721292;30;20415;-92
2023/05/26 01:09:54;;;;;;;44.58;24.20;;;14.50;81.10;;;;;;4729613;30;20059;-92
2023/05/26 01:12:36;;;;;;;47.22;23.55;;;14.50;81.00;;;;;;4753364;30;20048;-91
2023/05/26 01:15:17;;;;;;;44.45;23.13;;;14.50;81.00;;;;;;4738722;30;20147;-91
2023/05/26 01:18:03;;;;;;;47.13;23.52;;;14.50;81.00;;;;;;4753344;30;20385;-91
2023/05/26 01:20:45;;;;;;;44.47;22.83;;;14.50;81.00;;;;;;4738788;30;20058;-91
2023/05/26 01:23:46;;;;;;;52.45;24.70;;;14.50;80.80;;;;;;4753441;30;20060;-91
2023/05/26 01:26:46;;;;;;;48.85;23.45;;;14.50;80.80;;;;;;4753134;30;20056;-91
2023/05/26 01:29:15;;;;;;;43.88;21.98;;;14.50;81.00;;;;;;4738342;30;20056;-91
2023/05/26 01:31:44;;;;;;;41.08;22.58;;;14.50;80.90;;;;;;4752430;30;20090;-91
2023/05/26 01:34:12;;;;;;;39.17;21.27;;;14.50;80.90;;;;;;4752457;30;20059;-91
2023/05/26 01:36:39;;;;;;;43.90;23.00;;;14.50;81.00;;;;;;4753119;30;20052;-91
2023/05/26 01:39:07;;;;;;;42.83;21.67;;;14.50;80.90;;;;;;4738214;30;20500;-91
2023/05/26 01:41:43;;;;;;;44.05;21.45;;;14.50;80.90;;;;;;4724756;30;20537;-91
2023/05/26 01:44:18;;;;;;;46.92;23.38;;;14.50;80.90;;;;;;4738184;30;20147;-91
2023/05/26 01:46:48;;;;;;;47.90;23.80;;;14.50;81.00;;;;;;4752786;30;20052;-91
2023/05/26 01:49:18;;;;;;;44.53;22.77;;;14.40;81.40;;;;;;4737968;30;20262;-91
2023/05/26 01:51:54;;;;;;;48.42;23.35;;;14.40;81.70;;;;;;4738018;30;20056;-92
2023/05/26 01:54:24;;;;;;;48.00;23.42;;;14.40;81.80;;;;;;4752409;30;20045;-91
2023/05/26 01:56:56;;;;;;;43.55;22.00;;;14.40;81.80;;;;;;4752676;30;20052;-91
2023/05/26 01:59:24;;;;;;;40.43;20.43;;;14.40;81.80;;;;;;4738246;30;20056;-92
2023/05/26 02:01:56;;;;;;;41.08;21.00;;;14.40;81.60;;;;;;4738214;30;20143;-91
2023/05/26 02:04:40;;;;;;;42.90;21.40;;;14.40;81.50;;;;;;4752371;30;20056;-91
2023/05/26 02:46:04;;;;;;;34.05;18.42;;;14.40;81.40;;;;;;4685666;30;20155;-92
2023/05/26 02:48:32;;;;;;;36.75;19.48;;;14.50;81.60;;;;;;4671051;30;20092;-91
2023/05/26 02:50:59;;;;;;;38.47;19.17;;;14.40;81.60;;;;;;4685167;30;20068;-92
2023/05/26 02:53:26;;;;;;;39.88;20.23;;;14.40;81.60;;;;;;4717350;30;20048;-91
2023/05/26 02:55:54;;;;;;;41.37;19.43;;;14.50;81.60;;;;;;4740659;30;20102;-91
2023/05/26 02:58:34;;;;;;;38.00;19.73;;;14.50;81.70;;;;;;4770467;30;20526;-91
2023/05/26 03:05:42;;;;;;;33.45;17.95;;;14.40;81.60;;;;;;4756668;30;20557;-91
2023/05/26 03:08:22;;;;;;;35.95;18.42;;;14.50;81.70;;;;;;4769601;30;20527;-92
2023/05/26 03:15:39;;;;;;;38.20;19.20;;;14.50;81.70;;;;;;4756208;30;20075;-91
2023/05/26 03:23:01;;;;;;;38.40;20.33;;;14.50;81.70;;;;;;4756118;30;20103;-91
2023/05/26 03:25:29;;;;;;;39.22;21.20;;;14.50;81.60;;;;;;4739702;30;20052;-92
2023/05/26 03:37:01;;;;;;;36.72;21.23;;;14.50;81.70;;;;;;4754474;30;20135;-92
2023/05/26 03:39:33;;;;;;;36.10;18.77;;;14.50;81.60;;;;;;4725967;30;20052;-91
2023/05/26 03:42:01;;;;;;;36.22;19.40;;;14.60;81.70;;;;;;4740097;30;20106;-92
2023/05/26 03:44:33;;;;;;;37.83;20.70;;;14.60;81.80;;;;;;4768825;30;20439;-92
2023/05/26 03:47:01;;;;;;;38.05;19.88;;;14.60;81.80;;;;;;4739530;30;20056;-92
2023/05/26 03:49:33;;;;;;;36.03;19.90;;;14.70;81.60;;;;;;4768358;30;20048;-92
2023/05/26 03:52:01;;;;;;;34.22;19.98;;;14.70;81.50;;;;;;4739727;30;20052;-91
2023/05/26 03:54:30;;;;;;;38.03;21.63;;;14.70;81.60;;;;;;4768682;30;20056;-91
2023/05/26 03:56:57;;;;;;;41.23;21.40;;;14.80;81.10;;;;;;4739673;30;20048;-91
2023/05/26 03:59:25;;;;;;;36.35;20.48;;;14.80;81.20;;;;;;4725084;30;20055;-91
2023/05/26 04:01:52;;;;;;;43.90;22.27;;;14.80;81.30;;;;;;4768881;30;20052;-91
2023/05/26 04:04:19;;;;;;;37.75;21.23;;;14.80;81.40;;;;;;4739505;30;20080;-91
2023/05/26 04:06:47;;;;;;;38.38;21.92;;;14.80;81.40;;;;;;4754222;30;20084;-91
2023/05/26 04:09:16;;;;;;;40.77;21.27;;;14.80;81.60;;;;;;4739466;30;20109;-91
2023/05/26 04:11:44;;;;;;;35.15;20.02;;;14.80;81.50;;;;;;4768796;30;20075;-91
2023/05/26 04:19:16;;;;;;;37.45;20.02;;;14.90;81.00;;;;;;4755482;30;20171;-92
2023/05/26 04:31:28;;;;;;;39.63;20.85;;;15.10;80.30;;;;;;4616029;30;20085;-91
2023/05/26 04:34:30;;;;;;;40.63;21.92;;;15.20;80.40;;;;;;4581536;31;20057;-91
2023/05/26 04:37:10;;;;;;;40.78;22.00;;;15.20;80.40;;;;;;4658655;30;20061;-91
2023/05/26 04:39:37;;;;;;;45.95;22.52;;;15.20;79.90;;;;;;4685701;30;20081;-92
2023/05/26 04:42:04;;;;;;;44.67;22.37;;;15.30;79.80;;;;;;4685805;30;20057;-91
2023/05/26 04:44:32;;;;;;;46.05;23.25;;;15.30;79.90;;;;;;4686213;30;20465;-91
2023/05/26 04:47:03;;;;;;;45.67;22.90;;;15.40;79.90;;;;;;4685971;30;20084;-91
2023/05/26 04:49:30;;;;;;;44.88;24.38;;;15.40;79.80;;;;;;4685937;30;20098;-91
2023/05/26 04:51:59;;;;;;;49.00;23.77;;;15.40;80.00;;;;;;4685908;30;20053;-91
2023/05/26 04:54:27;;;;;;;46.20;23.73;;;15.50;80.10;;;;;;4685781;30;20053;-91
2023/05/26 04:56:58;;;;;;;45.20;23.83;;;15.50;80.30;;;;;;4686043;30;20057;-90
2023/05/26 04:59:40;;;;;;;43.67;24.92;;;15.50;80.20;;;;;;4687516;30;20410;-91
2023/05/26 05:02:07;;;;;;;46.50;24.75;;;15.40;79.80;;;;;;4695992;30;20183;-90
2023/05/26 05:04:50;;;;;;;42.35;24.48;;;15.40;79.80;;;;;;4752988;30;20526;-91
2023/05/26 05:07:17;;;;;;;40.60;23.63;;;15.40;79.70;;;;;;4738215;30;20431;-91
2023/05/26 05:09:44;;;;;;;41.60;22.40;;;15.40;79.50;;;;;;4753003;30;20052;-91
2023/05/26 05:12:12;;;;;;;43.92;24.90;;;15.50;79.50;;;;;;4738409;30;20507;-91
2023/05/26 05:14:40;;;;;;;44.28;23.70;;;15.50;79.60;;;;;;4738099;30;20139;-91
2023/05/26 05:17:07;;;;;;;42.28;21.80;;;15.50;79.20;;;;;;4753139;30;20060;-91
2023/05/26 05:19:35;;;;;;;42.13;23.63;;;15.50;79.30;;;;;;4738357;30;20074;-91
2023/05/26 05:22:04;;;;;;;40.78;23.58;;;15.60;79.60;;;;;;4767938;30;20071;-91
2023/05/26 05:24:35;;;;;;;45.67;24.05;;;15.60;79.00;;;;;;4767129;30;20401;-90
2023/05/26 05:27:05;;;;;;;46.08;23.70;;;15.70;78.90;;;;;;4738600;30;20045;-91
2023/05/26 05:29:33;;;;;;;36.72;21.90;;;15.80;78.80;;;;;;4752680;30;20054;-91
2023/05/26 05:32:02;;;;;;;40.40;21.70;;;15.80;78.60;;;;;;4738267;30;20054;-91
2023/05/26 05:34:39;;;;;;;42.53;23.38;;;15.80;78.50;;;;;;4752899;30;20116;-91
2023/05/26 05:37:07;;;;;;;40.40;23.30;;;15.70;78.60;;;;;;4724015;30;20346;-91
2023/05/26 05:39:34;;;;;;;41.63;22.33;;;15.70;78.60;;;;;;4767508;30;20052;-91
2023/05/26 05:42:03;;;;;;;42.67;21.63;;;15.80;78.20;;;;;;4738097;30;20048;-91
2023/05/26 05:44:30;;;;;;;39.00;21.40;;;15.70;78.90;;;;;;4753186;30;20059;-90
2023/05/26 05:46:58;;;;;;;37.88;20.42;;;15.70;78.70;;;;;;4767181;30;20101;-91
2023/05/26 05:49:45;;;;;;;44.83;20.88;;;15.70;78.40;;;;;;4740030;30;20087;-91
2023/05/26 05:52:14;;;;;;;35.40;19.08;;;15.80;78.40;;;;;;4737770;30;20048;-91
2023/05/26 05:54:41;;;;;;;34.95;20.30;;;15.90;77.90;;;;;;4752489;30;20052;-90
2023/05/26 05:57:09;;;;;;;33.90;19.40;;;15.90;77.70;;;;;;4737836;30;20460;-91
2023/05/26 05:59:36;;;;;;;36.28;19.92;;;16.00;77.50;;;;;;4738146;30;20135;-91
2023/05/26 06:02:04;;;;;;;35.35;19.83;;;16.00;77.70;;;;;;4752532;30;20052;-91
2023/05/26 06:08:33;;;;;;;36.22;17.83;;;16.00;76.20;;;;;;4753915;30;20059;-91
2023/05/26 06:11:05;;;;;;;32.07;18.13;;;16.00;76.30;;;;;;4767771;30;20048;-91
2023/05/26 06:13:38;;;;;;;33.55;18.80;;;15.90;77.00;;;;;;4741872;30;20052;-91
2023/05/26 06:16:08;;;;;;;31.17;17.75;;;15.90;76.90;;;;;;4770130;30;20139;-93
2023/05/26 06:18:36;;;;;;;29.80;17.20;;;16.00;76.20;;;;;;4741161;30;20461;-93
2023/05/26 06:21:04;;;;;;;28.38;16.83;;;16.00;75.80;;;;;;4755798;30;20052;-93
2023/05/26 06:23:32;;;;;;;33.03;16.70;;;16.00;76.00;;;;;;4741171;30;20052;-93
2023/05/26 06:26:00;;;;;;;30.13;16.92;;;16.00;76.20;;;;;;4741508;30;20056;-90
2023/05/26 06:28:27;;;;;;;32.22;15.85;;;16.10;76.50;;;;;;4755686;30;20052;-93
2023/05/26 06:30:57;;;;;;;26.98;16.35;;;16.10;75.20;;;;;;4741063;30;20048;-93
2023/05/26 06:33:31;;;;;;;27.23;15.63;;;16.10;74.40;;;;;;4755909;30;20110;-92
2023/05/26 06:36:00;;;;;;;30.27;15.77;;;16.20;74.40;;;;;;4741173;30;20048;-93
2023/05/26 06:38:27;;;;;;;30.27;16.80;;;16.20;74.00;;;;;;4770071;30;20056;-93
2023/05/26 06:40:59;;;;;;;30.33;17.20;;;16.30;74.50;;;;;;4742301;30;20519;-93
2023/05/26 06:43:27;;;;;;;28.48;15.93;;;16.40;74.20;;;;;;4726521;30;20053;-94
2023/05/26 06:45:59;;;;;;;28.58;17.02;;;16.50;73.20;;;;;;4741563;30;20048;-94
2023/05/26 06:48:52;;;;;;;27.33;15.90;;;16.50;73.50;;;;;;4726261;30;20404;-95
2023/05/26 06:51:45;;;;;;;29.30;16.60;;;16.50;73.60;;;;;;4740542;30;20052;-91
2023/05/26 06:54:13;;;;;;;29.52;15.90;;;16.50;73.50;;;;;;4770005;30;20110;-88
2023/05/26 06:56:41;;;;;;;26.67;15.70;;;16.70;74.50;;;;;;4745135;30;20049;-88
2023/05/26 06:59:08;;;;;;;28.23;14.95;;;16.90;73.40;;;;;;4749570;30;20040;-90
2023/05/26 07:01:35;;;;;;;26.37;15.60;;;16.90;73.00;;;;;;4769953;30;20056;-89
2023/05/26 07:04:02;;;;;;;25.77;15.00;;;17.00;73.40;;;;;;4725835;30;20059;-91
2023/05/26 07:06:30;;;;;;;26.45;14.68;;;17.10;73.10;;;;;;4769559;30;20135;-92
2023/05/26 07:09:12;;;;;;;26.67;15.02;;;17.40;72.30;;;;;;4741745;30;20157;-91
2023/05/26 07:11:59;;;;;;;28.60;16.05;;;17.30;70.70;;;;;;4754837;30;20056;-91
2023/05/26 07:14:53;;;;;;;24.40;15.27;;;17.20;70.80;;;;;;4741065;30;20053;-91
2023/05/26 07:17:20;;;;;;;28.95;15.90;;;17.20;71.60;;;;;;4769466;30;20052;-90
2023/05/26 07:19:48;;;;;;;27.27;15.27;;;17.40;72.70;;;;;;4736657;30;20051;-88
2023/05/26 07:22:15;;;;;;;28.17;15.93;;;17.50;72.20;;;;;;4753387;30;20575;-88
2023/05/26 07:24:54;;;;;;;26.73;15.85;;;17.50;71.40;;;;;;4726161;30;20071;-87
2023/05/26 07:27:28;;;;;;;26.43;15.30;;;17.50;71.60;;;;;;4736332;30;20413;-88
2023/05/26 07:29:55;;;;;;;27.42;15.85;;;17.50;70.60;;;;;;4743864;30;20087;-87
2023/05/26 07:32:22;;;;;;;27.52;15.30;;;17.50;70.80;;;;;;4753799;30;20143;-87
2023/05/26 07:34:51;;;;;;;26.77;16.13;;;17.40;71.50;;;;;;4756009;30;20487;-90
2023/05/26 07:37:18;;;;;;;30.75;16.27;;;17.30;71.00;;;;;;4753743;30;20075;-88
2023/05/26 07:39:45;;;;;;;29.77;15.77;;;17.20;71.60;;;;;;4729422;30;20078;-88
2023/05/26 07:42:12;;;;;;;30.42;17.33;;;17.10;71.70;;;;;;4748299;30;20048;-89
2023/05/26 07:44:39;;;;;;;29.60;17.30;;;17.00;72.10;;;;;;4747351;30;20048;-89
2023/05/26 07:47:06;;;;;;;28.55;16.52;;;16.80;72.90;;;;;;4740301;30;20458;-89
2023/05/26 07:49:33;;;;;;;34.35;18.15;;;16.70;73.40;;;;;;4753963;30;20063;-89
2023/05/26 07:52:00;;;;;;;30.23;17.63;;;16.50;74.30;;;;;;4748741;30;20114;-90
2023/05/26 07:54:27;;;;;;;32.22;19.05;;;16.50;74.50;;;;;;4753475;30;20044;-89
2023/05/26 07:56:54;;;;;;;32.63;19.00;;;16.50;74.80;;;;;;4768236;30;20124;-89
2023/05/26 07:59:21;;;;;;;31.52;18.30;;;16.50;75.00;;;;;;4751193;30;20059;-89
2023/05/26 08:01:49;;;;;;;31.33;18.02;;;16.50;75.00;;;;;;4741263;30;20066;-89
2023/05/26 08:04:16;;;;;;;29.63;17.70;;;16.60;74.90;;;;;;4768548;30;20056;-88
2023/05/26 08:06:43;;;;;;;32.72;18.67;;;16.50;74.70;;;;;;4738613;30;20048;-89
2023/05/26 08:09:10;;;;;;;33.22;18.20;;;16.50;74.90;;;;;;4768260;30;20063;-89
2023/05/26 08:11:38;;;;;;;31.60;18.40;;;16.50;74.90;;;;;;4751067;30;20140;-89
2023/05/26 08:14:05;;;;;;;30.75;18.23;;;16.60;74.90;;;;;;4746046;30;20048;-90
2023/05/26 08:16:32;;;;;;;31.60;17.40;;;16.60;74.70;;;;;;4724322;30;20101;-89
2023/05/26 08:18:59;;;;;;;29.10;16.75;;;16.50;74.60;;;;;;4752117;30;20048;-89
2023/05/26 08:21:26;;;;;;;30.27;17.83;;;16.60;74.70;;;;;;4753255;30;20133;-89
2023/05/26 08:23:54;;;;;;;28.10;16.45;;;16.60;74.30;;;;;;4751913;30;20064;-89
2023/05/26 08:26:21;;;;;;;29.73;18.15;;;16.50;74.50;;;;;;4752987;30;20145;-89
2023/05/26 08:28:48;;;;;;;30.00;17.33;;;16.50;74.70;;;;;;4738526;30;20147;-90
2023/05/26 08:31:15;;;;;;;32.72;17.02;;;16.50;75.00;;;;;;4753080;30;20131;-89
2023/05/26 08:33:43;;;;;;;31.23;18.15;;;16.50;75.40;;;;;;4767418;30;20048;-91
2023/05/26 08:36:10;;;;;;;35.50;18.30;;;16.60;75.50;;;;;;4724321;30;20419;-90
2023/05/26 08:38:37;;;;;;;30.10;17.83;;;16.60;75.50;;;;;;4767976;30;20061;-91
2023/05/26 08:41:05;;;;;;;27.90;17.40;;;16.50;74.80;;;;;;4767997;30;20511;-90
2023/05/26 08:43:48;;;;;;;30.73;17.90;;;16.60;75.30;;;;;;4738418;30;20048;-91
2023/05/26 08:46:22;;;;;;;29.35;17.63;;;16.60;74.90;;;;;;4753184;30;20508;-91
2023/05/26 08:48:54;;;;;;;30.10;17.67;;;16.60;74.90;;;;;;4753170;30;20084;-90
2023/05/26 08:51:22;;;;;;;27.75;16.30;;;16.70;74.60;;;;;;4738405;30;20121;-90
2023/05/26 08:53:50;;;;;;;27.90;15.73;;;16.80;74.60;;;;;;4738294;30;20504;-90
2023/05/26 08:56:18;;;;;;;26.67;15.02;;;16.80;74.10;;;;;;4738725;30;20068;-90
2023/05/26 08:58:46;;;;;;;28.05;16.42;;;16.70;74.60;;;;;;4724094;30;20056;-91
2023/05/26 09:01:13;;;;;;;25.88;16.00;;;16.90;74.30;;;;;;4752884;30;20056;-91
2023/05/26 09:03:40;;;;;;;28.92;15.30;;;17.00;73.10;;;;;;4738529;30;20101;-91
2023/05/26 09:06:08;;;;;;;28.57;15.53;;;17.00;73.40;;;;;;4767911;30;20060;-91
2023/05/26 09:08:35;;;;;;;27.98;16.42;;;17.10;73.40;;;;;;4767808;30;20525;-91
2023/05/26 09:11:23;;;;;;;29.15;17.77;;;17.10;73.30;;;;;;4738430;30;20110;-90
2023/05/26 09:13:57;;;;;;;26.48;15.30;;;17.20;73.20;;;;;;4738490;30;20056;-90
2023/05/26 09:16:26;;;;;;;30.77;15.90;;;17.30;73.50;;;;;;4752752;30;20052;-90
2023/05/26 09:18:57;;;;;;;30.30;16.33;;;17.40;73.20;;;;;;4738327;30;20052;-90
2023/05/26 09:21:29;;;;;;;26.83;16.27;;;17.50;72.70;;;;;;4738186;30;20139;-90
2023/05/26 09:23:58;;;;;;;27.95;16.60;;;17.50;71.80;;;;;;4738544;30;20118;-90
2023/05/26 09:26:34;;;;;;;28.63;16.75;;;17.50;72.50;;;;;;4753055;30;20052;-89
2023/05/26 09:29:05;;;;;;;29.55;17.70;;;17.50;72.00;;;;;;4723737;30;20056;-90
2023/05/26 09:31:41;;;;;;;29.20;17.43;;;17.50;71.50;;;;;;4753021;30;20056;-90
2023/05/26 09:34:10;;;;;;;32.03;17.17;;;17.40;71.70;;;;;;4738287;30;20156;-90
2023/05/26 09:36:38;;;;;;;27.10;17.10;;;17.50;71.50;;;;;;4767134;30;20068;-89
2023/05/26 09:39:10;;;;;;;29.45;16.63;;;17.60;71.90;;;;;;4738048;30;20059;-90
2023/05/26 09:41:42;;;;;;;27.88;17.10;;;17.80;71.90;;;;;;4752805;30;20060;-91
2023/05/26 09:44:18;;;;;;;30.23;17.00;;;17.80;70.60;;;;;;4738088;30;20063;-90
2023/05/26 09:46:46;;;;;;;30.80;17.52;;;17.90;71.00;;;;;;4741588;30;20397;-90
2023/05/26 09:49:15;;;;;;;29.23;16.92;;;18.00;71.50;;;;;;4756146;30;20508;-89
2023/05/26 09:51:45;;;;;;;28.35;15.98;;;18.10;70.10;;;;;;4741239;30;20060;-89
2023/05/26 09:54:21;;;;;;;28.77;16.70;;;18.20;70.30;;;;;;4755878;30;20152;-90
2023/05/26 09:57:04;;;;;;;27.30;16.00;;;18.30;70.90;;;;;;4755913;30;20151;-89
2023/05/26 09:59:38;;;;;;;27.42;16.90;;;18.40;70.70;;;;;;4726844;30;20052;-89
2023/05/26 10:02:20;;;;;;;26.27;17.00;;;18.50;70.40;;;;;;4770611;30;20060;-89
2023/05/26 10:04:52;;;;;;;27.20;15.98;;;18.50;69.90;;;;;;4741198;30;20052;-89
2023/05/26 10:07:21;;;;;;;29.60;16.05;;;18.60;69.50;;;;;;4755780;30;20156;-89
2023/05/26 10:09:55;;;;;;;29.70;17.37;;;18.60;69.10;;;;;;4758780;30;20063;-88
2023/05/26 10:12:30;;;;;;;25.45;16.77;;;18.80;69.00;;;;;;4758408;30;20059;-89
2023/05/26 10:14:58;;;;;;;26.25;16.55;;;18.80;68.90;;;;;;4758838;30;20047;-90
2023/05/26 10:17:26;;;;;;;28.20;16.70;;;18.60;69.10;;;;;;4773192;30;20048;-89
2023/05/26 10:19:55;;;;;;;26.10;16.10;;;18.60;69.00;;;;;;4758479;30;20503;-89
2023/05/26 10:22:37;;;;;;;27.13;15.77;;;18.50;70.00;;;;;;4744527;30;20061;-89
2023/05/26 10:25:26;;;;;;;26.27;17.60;;;18.50;70.10;;;;;;4773432;30;20056;-91
2023/05/26 10:28:03;;;;;;;27.23;17.23;;;18.40;69.60;;;;;;4758440;30;20127;-89
2023/05/26 10:30:32;;;;;;;27.08;16.92;;;18.20;71.70;;;;;;4787776;30;20076;-89
2023/05/26 10:33:11;;;;;;;28.90;17.55;;;18.30;71.60;;;;;;4758331;30;20062;-90
2023/05/26 10:35:53;;;;;;;26.83;17.23;;;18.30;71.20;;;;;;4787652;30;20491;-90
2023/05/26 10:38:26;;;;;;;27.83;17.90;;;18.30;71.10;;;;;;4757867;30;20511;-89
2023/05/26 10:40:53;;;;;;;28.30;17.02;;;18.50;71.60;;;;;;4755380;30;20492;-89
2023/05/26 10:43:25;;;;;;;27.17;17.75;;;18.80;72.20;;;;;;4740430;30;20393;-89
2023/05/26 10:46:03;;;;;;;27.30;18.40;;;19.00;70.70;;;;;;4754967;30;20048;-89
2023/05/26 10:48:39;;;;;;;30.07;16.83;;;19.10;70.90;;;;;;4740398;30;20056;-89
2023/05/26 10:51:28;;;;;;;29.42;16.83;;;19.10;70.70;;;;;;4755495;30;20431;-90
2023/05/26 10:53:56;;;;;;;29.23;18.65;;;19.20;71.10;;;;;;4726110;30;20059;-91
2023/05/26 10:56:34;;;;;;;29.88;18.55;;;19.30;71.20;;;;;;4739771;30;20052;-89
2023/05/26 10:59:08;;;;;;;29.38;19.23;;;19.50;70.20;;;;;;4725489;30;20082;-89
2023/05/26 11:01:35;;;;;;;29.87;18.10;;;19.60;69.10;;;;;;4769649;30;20052;-89
2023/05/26 11:04:05;;;;;;;26.83;18.02;;;19.60;69.10;;;;;;4739960;30;20059;-90
2023/05/26 11:06:59;;;;;;;31.35;19.52;;;19.50;70.50;;;;;;4769426;30;20585;-90
2023/05/26 11:09:28;;;;;;;31.20;19.40;;;19.60;70.10;;;;;;4740090;30;20060;-90
2023/05/26 11:12:06;;;;;;;32.08;19.63;;;19.60;70.90;;;;;;4754650;30;20052;-91
2023/05/26 11:14:34;;;;;;;29.87;20.77;;;19.70;70.90;;;;;;4725889;30;20475;-89
2023/05/26 11:17:04;;;;;;;30.83;20.92;;;19.80;69.50;;;;;;4754511;30;20227;-90
2023/05/26 11:19:34;;;;;;;33.47;20.42;;;19.80;68.50;;;;;;4740036;30;20052;-91
2023/05/26 11:22:04;;;;;;;26.95;19.13;;;19.80;70.10;;;;;;4739993;30;20416;-92
2023/05/26 11:24:32;;;;;;;30.77;22.27;;;19.90;69.60;;;;;;4754728;30;20099;-92
2023/05/26 11:27:03;;;;;;;30.13;21.60;;;19.90;68.70;;;;;;4740273;30;20110;-92
2023/05/26 11:29:31;;;;;;;28.75;20.38;;;20.00;69.60;;;;;;4754857;30;20114;-91
2023/05/26 11:32:01;;;;;;;29.05;20.20;;;19.90;68.90;;;;;;4754193;30;20086;-90
2023/05/26 11:34:29;;;;;;;27.08;20.45;;;19.70;69.30;;;;;;4740428;30;20079;-92
2023/05/26 11:36:58;;;;;;;30.73;20.17;;;19.60;69.90;;;;;;4754452;30;20061;-92
2023/05/26 11:39:35;;;;;;;27.70;19.23;;;19.40;69.90;;;;;;4740252;30;20500;-91
2023/05/26 11:42:12;;;;;;;27.48;18.88;;;19.30;71.40;;;;;;4739668;30;20058;-92
2023/05/26 11:44:44;;;;;;;28.75;18.48;;;19.10;71.20;;;;;;4754182;30;20143;-91
2023/05/26 11:47:14;;;;;;;25.23;17.48;;;19.10;71.40;;;;;;4725092;30;20056;-91
2023/05/26 11:49:47;;;;;;;25.88;17.15;;;19.10;71.40;;;;;;4754502;30;20465;-93
2023/05/26 11:52:16;;;;;;;24.03;16.80;;;19.00;71.20;;;;;;4739411;30;20508;-92
2023/05/26 11:54:44;;;;;;;22.55;16.10;;;19.10;71.70;;;;;;4739435;30;20062;-91
2023/05/26 11:57:33;;;;;;;23.83;16.08;;;19.10;71.40;;;;;;4739685;30;20048;-92
2023/05/26 12:00:09;;;;;;;22.48;15.07;;;19.10;71.20;;;;;;4754078;30;20075;-93
2023/05/26 12:02:37;;;;;;;23.85;14.82;;;19.10;70.60;;;;;;4754093;30;20503;-91
2023/05/26 12:05:17;;;;;;;22.40;14.63;;;19.20;70.90;;;;;;4739476;30;20056;-91
2023/05/26 12:07:44;;;;;;;22.80;15.48;;;19.30;70.50;;;;;;4768463;30;20090;-91
2023/05/26 12:10:11;;;;;;;21.23;14.60;;;19.30;70.10;;;;;;4738558;30;20106;-91
2023/05/26 12:12:51;;;;;;;24.67;15.32;;;19.30;70.40;;;;;;4753518;30;20044;-91
2023/05/26 12:15:20;;;;;;;21.98;13.98;;;19.30;70.50;;;;;;4739684;30;20530;-91
2023/05/26 12:17:50;;;;;;;22.27;13.57;;;19.40;69.50;;;;;;4753529;30;20454;-91
2023/05/26 12:20:18;;;;;;;23.80;14.27;;;19.50;69.50;;;;;;4739100;30;20048;-91
2023/05/26 12:23:08;;;;;;;21.42;14.40;;;19.60;68.70;;;;;;4742172;30;20052;-93
2023/05/26 12:25:35;;;;;;;23.48;13.73;;;19.70;69.10;;;;;;4768481;30;20077;-92
2023/05/26 12:28:05;;;;;;;21.85;13.68;;;19.90;69.30;;;;;;4724955;30;20052;-92
2023/05/26 12:30:33;;;;;;;22.00;13.20;;;19.80;68.50;;;;;;4754044;30;20151;-93
2023/05/26 12:33:18;;;;;;;18.35;12.15;;;19.70;68.70;;;;;;4741778;30;20087;-94
2023/05/26 12:35:49;;;;;;;18.92;10.10;;;19.70;68.40;;;;;;4724293;30;20060;-93
2023/05/26 12:38:16;;;;;;;18.13;9.82;;;19.70;68.00;;;;;;4724375;30;20060;-92
2023/05/26 12:40:56;;;;;;;15.63;8.97;;;19.60;67.60;;;;;;5003797;27;4325855;-88
2023/05/26 12:43:24;;;;;;;17.90;9.55;;;19.50;67.30;;;;;;5114922;28;20040;-88
2023/05/26 12:45:54;;;;;;;17.83;9.15;;;19.50;67.00;;;;;;5115015;28;20047;-90
2023/05/26 12:48:25;;;;;;;16.38;8.55;;;19.50;68.00;;;;;;5132247;28;20051;-91
2023/05/26 12:50:53;;;;;;;17.75;8.80;;;19.50;68.50;;;;;;5115023;28;20047;-91
2023/05/26 12:53:20;;;;;;;15.97;8.33;;;19.60;68.50;;;;;;5115065;28;20061;-91
2023/05/26 12:55:50;;;;;;;17.00;9.25;;;19.60;68.10;;;;;;5115441;28;20049;-91
2023/05/26 12:58:17;;;;;;;17.90;9.20;;;19.60;68.30;;;;;;5114497;28;20461;-91
2023/05/26 13:00:44;;;;;;;17.10;9.07;;;19.60;68.50;;;;;;5114776;28;20378;-91
2023/05/26 13:03:14;;;;;;;16.60;8.00;;;19.60;68.60;;;;;;5114613;28;20071;-91
2023/05/26 13:05:42;;;;;;;16.13;8.43;;;19.60;68.40;;;;;;5115086;28;20138;-92
2023/05/26 13:08:09;;;;;;;16.75;8.45;;;19.70;68.20;;;;;;5114531;28;20048;-90
2023/05/26 13:10:36;;;;;;;17.40;8.90;;;19.70;68.50;;;;;;5114829;28;20092;-90
2023/05/26 13:13:04;;;;;;;20.17;9.10;;;19.60;68.10;;;;;;5114328;28;20527;-92
2023/05/26 13:15:31;;;;;;;17.80;9.18;;;19.60;68.20;;;;;;5114339;28;20481;-91
2023/05/26 13:17:58;;;;;;;15.00;8.00;;;19.60;68.60;;;;;;5114736;28;20500;-91
2023/05/26 13:20:27;;;;;;;16.90;8.35;;;19.60;68.80;;;;;;5114267;28;20043;-91
2023/05/26 13:22:54;;;;;;;19.27;9.10;;;19.60;69.00;;;;;;5114195;28;20381;-90
2023/05/26 13:25:22;;;;;;;16.98;8.20;;;19.50;69.00;;;;;;5114488;28;20097;-90
2023/05/26 13:27:51;;;;;;;17.25;8.88;;;19.50;69.40;;;;;;5110541;28;20135;-88
2023/05/26 13:30:18;;;;;;;14.70;7.97;;;19.50;68.30;;;;;;5110613;28;20501;-89
2023/05/26 13:32:46;;;;;;;15.73;7.95;;;19.30;68.80;;;;;;5113735;28;20381;-89
2023/05/26 13:57:08;;;;;;;12.82;6.60;;;18.80;67.40;;;;;;701669;24;21654;-87
2023/05/26 13:59:36;;;;;;;16.38;7.28;;;18.80;67.60;;;;;;4842811;29;20053;-90
2023/05/26 14:02:06;;;;;;;16.07;7.50;;;18.80;67.40;;;;;;4845186;29;20073;-89
2023/05/26 14:04:33;;;;;;;16.98;6.90;;;18.70;67.20;;;;;;4845911;29;20342;-89
2023/05/26 14:07:00;;;;;;;13.00;6.95;;;18.70;67.70;;;;;;4830109;29;20042;-88
2023/05/26 14:09:33;;;;;;;21.73;7.28;;;18.80;67.20;;;;;;4849077;29;20500;-87
2023/05/26 14:12:01;;;;;;;13.32;6.93;;;18.80;67.50;;;;;;4863769;29;20064;-88
2023/05/26 14:14:29;;;;;;;14.13;6.13;;;18.80;67.20;;;;;;4848099;29;20415;-88
2023/05/26 14:16:56;;;;;;;15.10;6.25;;;18.70;66.60;;;;;;4873522;29;20057;-87
2023/05/26 14:19:23;;;;;;;14.55;6.57;;;18.70;66.50;;;;;;4866330;29;20493;-88
2023/05/26 14:21:52;;;;;;;15.98;6.78;;;18.70;66.70;;;;;;4867309;29;20059;-88
2023/05/26 14:24:42;;;;;;;13.15;6.03;;;18.70;66.70;;;;;;4852694;29;20419;-88
2023/05/26 14:27:10;;;;;;;12.33;6.03;;;18.70;66.40;;;;;;4848075;29;20531;-87
2023/05/26 14:29:37;;;;;;;13.82;6.35;;;18.80;67.20;;;;;;4847765;29;20068;-88